createdAt,value
2022-11-21T00:01:32.741Z,74.87
2022-11-21T00:04:02.644Z,72.27
2022-11-21T00:06:31.032Z,65.20
2022-11-21T00:08:59.458Z,71.50
2022-11-21T00:11:27.936Z,63.27
2022-11-21T00:13:56.317Z,56.03
2022-11-21T00:16:24.804Z,57.63
2022-11-21T00:18:53.277Z,61.57
2022-11-21T00:21:23.114Z,59.97
2022-11-21T00:23:54.405Z,61.33
2022-11-21T00:26:22.776Z,54.53
2022-11-21T00:28:51.389Z,53.43
2022-11-21T00:31:21.427Z,51.70
2022-11-21T00:33:50.094Z,54.53
2022-11-21T00:36:18.520Z,57.40
2022-11-21T00:38:48.382Z,58.90
2022-11-21T00:41:16.797Z,56.13
2022-11-21T00:43:45.207Z,63.63
2022-11-21T00:46:13.654Z,64.40
2022-11-21T00:48:42.174Z,56.70
2022-11-21T00:51:10.756Z,64.70
2022-11-21T00:53:39.116Z,61.90
2022-11-21T00:56:09.296Z,65.33
2022-11-21T00:58:37.686Z,63.20
2022-11-21T01:01:08.590Z,60.47
2022-11-21T01:03:38.280Z,51.13
2022-11-21T01:06:08.826Z,57.10
2022-11-21T01:08:39.530Z,58.30
2022-11-21T01:11:11.006Z,55.43
2022-11-21T01:13:39.611Z,58.37
2022-11-21T01:16:09.549Z,58.33
2022-11-21T01:18:38.448Z,58.87
2022-11-21T01:21:09.199Z,62.13
2022-11-21T01:23:37.585Z,58.23
2022-11-21T01:26:06.955Z,54.93
2022-11-21T01:28:36.957Z,50.37
2022-11-21T01:31:07.015Z,58.73
2022-11-21T01:33:35.789Z,54.83
2022-11-21T01:36:16.065Z,58.83
2022-11-21T01:38:46.173Z,57.10
2022-11-21T01:41:16.835Z,55.27
2022-11-21T01:43:48.027Z,57.13
2022-11-21T01:46:18.555Z,57.73
2022-11-21T01:48:54.208Z,58.80
2022-11-21T01:51:29.932Z,53.13
2022-11-21T01:54:03.463Z,60.50
2022-11-21T01:56:36.789Z,60.70
2022-11-21T01:59:08.402Z,65.30
2022-11-21T02:01:38.826Z,64.30
2022-11-21T02:04:08.647Z,62.23
2022-11-21T02:06:38.743Z,62.03
2022-11-21T02:09:08.524Z,64.73
2022-11-21T02:11:40.241Z,54.30
2022-11-21T02:14:10.988Z,55.10
2022-11-21T02:16:40.031Z,55.47
2022-11-21T02:19:14.661Z,52.60
2022-11-21T02:21:51.046Z,54.60
2022-11-21T02:24:28.771Z,53.77
2022-11-21T02:26:59.616Z,53.37
2022-11-21T02:29:28.518Z,50.43
2022-11-21T02:31:56.906Z,51.93
2022-11-21T02:34:25.504Z,54.50
2022-11-21T02:36:54.313Z,53.70
2022-11-21T02:39:27.152Z,51.00
2022-11-21T02:42:05.922Z,47.67
2022-11-21T02:44:42.609Z,38.67
2022-11-21T02:47:24.475Z,45.63
2022-11-21T02:49:58.321Z,48.97
2022-11-21T02:52:26.831Z,46.57
2022-11-21T02:54:55.259Z,52.60
2022-11-21T02:57:25.085Z,43.87
2022-11-21T02:59:53.463Z,48.10
2022-11-21T03:02:22.017Z,42.87
2022-11-21T03:04:50.609Z,47.90
2022-11-21T03:07:19.123Z,43.10
2022-11-21T03:09:47.542Z,50.57
2022-11-21T03:12:16.101Z,44.40
2022-11-21T03:14:45.984Z,43.67
2022-11-21T03:17:14.481Z,42.13
2022-11-21T03:19:42.855Z,45.23
2022-11-21T03:22:11.631Z,44.77
2022-11-21T03:24:40.032Z,41.37
2022-11-21T03:27:08.446Z,39.97
2022-11-21T03:29:36.902Z,40.90
2022-11-21T03:32:07.056Z,41.50
2022-11-21T03:34:35.654Z,42.07
2022-11-21T03:37:04.341Z,39.20
2022-11-21T03:39:33.493Z,46.93
2022-11-21T03:42:02.255Z,45.67
2022-11-21T03:44:31.500Z,51.20
2022-11-21T03:46:59.976Z,50.77
2022-11-21T03:49:29.856Z,49.13
2022-11-21T03:51:58.291Z,45.30
2022-11-21T03:54:26.887Z,44.90
2022-11-21T03:56:55.573Z,40.67
2022-11-21T03:59:23.943Z,41.30
2022-11-21T04:01:52.367Z,40.13
2022-11-21T04:04:21.015Z,45.17
2022-11-21T04:06:50.852Z,36.60
2022-11-21T04:09:19.326Z,43.23
2022-11-21T04:11:47.698Z,43.50
2022-11-21T04:14:16.105Z,45.53
2022-11-21T04:16:44.533Z,43.27
2022-11-21T04:19:12.946Z,57.57
2022-11-21T04:21:41.340Z,53.93
2022-11-21T04:24:12.644Z,46.23
2022-11-21T04:26:45.719Z,43.73
2022-11-21T04:29:15.794Z,45.07
2022-11-21T04:31:50.454Z,43.87
2022-11-21T04:34:18.963Z,46.43
2022-11-21T04:36:47.289Z,44.60
2022-11-21T04:39:17.113Z,47.10
2022-11-21T04:41:45.500Z,41.80
2022-11-21T04:44:13.962Z,40.07
2022-11-21T04:46:42.416Z,39.70
2022-11-21T04:49:10.766Z,43.87
2022-11-21T04:51:39.156Z,39.80
2022-11-21T04:54:07.621Z,43.80
2022-11-21T04:56:38.911Z,40.63
2022-11-21T04:59:07.243Z,38.67
2022-11-21T05:01:35.672Z,36.43
2022-11-21T05:04:04.092Z,43.47
2022-11-21T05:06:32.460Z,40.27
2022-11-21T05:09:00.880Z,47.57
2022-11-21T05:11:46.674Z,41.37
2022-11-21T05:14:16.852Z,40.77
2022-11-21T05:16:45.219Z,48.97
2022-11-21T05:19:14.825Z,44.90
2022-11-21T05:21:43.233Z,44.47
2022-11-21T05:24:11.706Z,39.47
2022-11-21T05:26:40.085Z,45.77
2022-11-21T05:29:08.693Z,48.67
2022-11-21T05:31:38.501Z,38.77
2022-11-21T05:34:06.895Z,35.93
2022-11-21T05:36:35.293Z,38.10
2022-11-21T05:39:03.702Z,43.63
2022-11-21T05:41:32.223Z,35.67
2022-11-21T05:43:59.639Z,36.57
2022-11-21T05:46:28.361Z,38.67
2022-11-21T05:48:58.171Z,37.50
2022-11-21T05:51:26.660Z,42.37
2022-11-21T05:53:55.126Z,37.83
2022-11-21T05:56:23.592Z,39.40
2022-11-21T05:58:52.144Z,45.87
2022-11-21T06:01:40.513Z,39.87
2022-11-21T06:04:09.932Z,43.87
2022-11-21T06:06:38.698Z,41.93
2022-11-21T06:09:07.147Z,40.17
2022-11-21T06:11:35.603Z,49.17
2022-11-21T06:14:04.331Z,41.80
2022-11-21T06:16:32.836Z,40.30
2022-11-21T06:19:01.539Z,36.53
2022-11-21T06:21:34.362Z,41.13
2022-11-21T06:24:02.808Z,35.27
2022-11-21T06:26:31.232Z,37.50
2022-11-21T06:28:59.596Z,36.93
2022-11-21T06:31:28.855Z,36.97
2022-11-21T06:33:59.228Z,38.90
2022-11-21T06:36:28.279Z,34.93
2022-11-21T06:38:58.320Z,36.57
2022-11-21T06:41:30.520Z,37.00
2022-11-21T06:44:01.504Z,36.60
2022-11-21T06:46:29.985Z,42.07
2022-11-21T06:48:58.575Z,38.50
2022-11-21T06:51:27.856Z,40.10
2022-11-21T06:53:59.669Z,37.80
2022-11-21T06:56:30.099Z,41.83
2022-11-21T06:58:59.128Z,40.77
2022-11-21T07:01:28.128Z,36.50
2022-11-21T07:03:57.022Z,40.07
2022-11-21T07:06:25.734Z,34.23
2022-11-21T07:11:45.422Z,35.33
2022-11-21T07:14:12.754Z,39.03
2022-11-21T07:16:41.428Z,43.07
2022-11-21T07:19:09.875Z,40.50
2022-11-21T07:21:38.256Z,34.97
2022-11-21T07:24:07.746Z,39.80
2022-11-21T07:26:36.257Z,39.90
2022-11-21T07:29:06.105Z,35.87
2022-11-21T07:31:35.133Z,37.90
2022-11-21T07:34:03.534Z,34.97
2022-11-21T07:36:33.039Z,31.07
2022-11-21T07:39:01.432Z,35.13
2022-11-21T07:41:29.982Z,41.10
2022-11-21T07:43:58.423Z,43.43
2022-11-21T07:46:28.720Z,40.33
2022-11-21T07:49:00.686Z,43.77
2022-11-21T07:51:31.536Z,47.77
2022-11-21T07:53:59.959Z,40.40
2022-11-21T07:56:28.974Z,41.27
2022-11-21T07:58:58.738Z,35.37
2022-11-21T08:01:28.835Z,34.63
2022-11-21T08:03:57.568Z,39.00
2022-11-21T08:06:25.948Z,35.83
2022-11-21T08:08:55.276Z,31.90
2022-11-21T08:11:23.636Z,37.00
2022-11-21T08:13:51.994Z,37.70
2022-11-21T08:16:20.543Z,33.03
2022-11-21T08:18:51.452Z,33.23
2022-11-21T08:21:20.289Z,34.63
2022-11-21T08:23:49.033Z,34.07
2022-11-21T08:26:17.556Z,33.90
2022-11-21T08:28:46.765Z,34.53
2022-11-21T08:31:15.351Z,26.00
2022-11-21T08:33:43.847Z,22.70
2022-11-21T08:36:13.911Z,24.10
2022-11-21T08:38:42.335Z,26.43
2022-11-21T08:41:27.360Z,71.80
2022-11-21T08:43:55.706Z,88.50
2022-11-21T08:46:27.492Z,35.93
2022-11-21T08:48:56.543Z,42.97
2022-11-21T08:51:26.564Z,46.53
2022-11-21T08:53:55.104Z,44.67
2022-11-21T08:56:23.748Z,39.77
2022-11-21T08:58:52.180Z,34.97
2022-11-21T09:01:20.831Z,27.97
2022-11-21T09:03:49.342Z,32.00
2022-11-21T09:06:17.869Z,30.50
2022-11-21T09:08:47.760Z,24.07
2022-11-21T09:11:16.164Z,24.00
2022-11-21T09:13:44.573Z,25.40
2022-11-21T09:16:38.875Z,23.03
2022-11-21T09:19:07.306Z,16.93
2022-11-21T09:21:35.685Z,18.13
2022-11-21T09:24:05.892Z,14.70
2022-11-21T09:26:34.339Z,17.23
2022-11-21T09:29:03.798Z,21.83
2022-11-21T09:31:32.248Z,17.60
2022-11-21T09:34:00.600Z,18.80
2022-11-21T09:36:29.102Z,18.47
2022-11-21T09:38:57.729Z,17.20
2022-11-21T09:41:51.435Z,16.10
2022-11-21T09:44:39.215Z,16.70
2022-11-21T09:47:20.347Z,13.80
2022-11-21T09:49:52.821Z,11.30
2022-11-21T09:52:26.338Z,14.50
2022-11-21T09:54:59.689Z,10.40
2022-11-21T09:57:34.641Z,11.77
2022-11-21T10:00:06.721Z,15.77
2022-11-21T10:02:35.583Z,11.53
2022-11-21T10:05:04.225Z,17.60
2022-11-21T10:07:36.218Z,12.20
2022-11-21T10:10:31.944Z,15.07
2022-11-21T10:13:15.860Z,16.43
2022-11-21T10:15:58.481Z,24.63
2022-11-21T10:19:03.271Z,16.33
2022-11-21T10:21:51.024Z,10.23
2022-11-21T10:24:42.353Z,13.53
2022-11-21T10:27:16.019Z,9.83
2022-11-21T10:29:53.423Z,11.00
2022-11-21T10:32:26.631Z,10.20
2022-11-21T10:35:00.899Z,12.80
2022-11-21T10:37:36.627Z,10.00
2022-11-21T10:40:22.444Z,13.17
2022-11-21T10:42:56.486Z,12.60
2022-11-21T10:45:25.693Z,10.07
2022-11-21T10:47:54.932Z,13.47
2022-11-21T10:50:44.090Z,11.53
2022-11-21T10:53:37.278Z,10.50
2022-11-21T10:56:09.058Z,8.77
2022-11-21T10:58:48.488Z,10.03
2022-11-21T11:01:27.479Z,8.47
2022-11-21T11:04:33.191Z,10.03
2022-11-21T11:07:23.820Z,9.27
2022-11-21T11:09:53.846Z,9.10
2022-11-21T11:12:45.673Z,7.43
2022-11-21T11:15:23.181Z,7.43
2022-11-21T11:17:56.602Z,6.83
2022-11-21T11:20:35.922Z,7.63
2022-11-21T11:23:18.382Z,8.07
2022-11-21T11:25:49.289Z,7.73
2022-11-21T11:28:19.505Z,5.67
2022-11-21T11:30:49.339Z,8.87
2022-11-21T11:33:34.031Z,8.47
2022-11-21T11:36:13.379Z,7.37
2022-11-21T11:38:45.578Z,5.87
2022-11-21T11:41:23.877Z,5.90
2022-11-21T11:44:21.740Z,7.60
2022-11-21T11:47:17.118Z,6.57
2022-11-21T11:50:07.941Z,6.17
2022-11-21T11:52:42.412Z,5.70
2022-11-21T11:55:18.723Z,20.73
2022-11-21T11:57:49.823Z,15.83
2022-11-21T12:00:31.883Z,13.20
2022-11-21T12:03:13.042Z,7.13
2022-11-21T12:05:57.017Z,6.63
2022-11-21T12:08:41.845Z,8.03
2022-11-21T12:11:42.065Z,5.53
2022-11-21T12:14:40.906Z,6.93
2022-11-21T12:17:11.825Z,6.93
2022-11-21T12:19:41.564Z,7.00
2022-11-21T12:22:13.241Z,6.90
2022-11-21T12:24:43.409Z,7.70
2022-11-21T12:27:28.485Z,6.57
2022-11-21T12:30:44.991Z,4.50
2022-11-21T12:33:22.520Z,6.23
2022-11-21T12:36:18.904Z,5.10
2022-11-21T12:39:01.554Z,7.40
2022-11-21T12:41:54.682Z,7.30
2022-11-21T12:44:39.054Z,6.93
2022-11-21T12:47:27.730Z,9.63
2022-11-21T12:50:24.647Z,8.03
2022-11-21T12:53:16.393Z,7.97
2022-11-21T12:55:47.942Z,9.27
2022-11-21T12:58:31.572Z,12.97
2022-11-21T13:01:21.564Z,11.77
2022-11-21T13:03:56.240Z,13.87
2022-11-21T13:06:28.701Z,15.63
2022-11-21T13:09:01.023Z,17.00
2022-11-21T13:12:02.561Z,15.33
2022-11-21T13:14:44.976Z,17.17
2022-11-21T13:17:24.888Z,17.20
2022-11-21T13:19:57.771Z,17.53
2022-11-21T13:23:01.296Z,17.27
2022-11-21T13:25:41.127Z,17.63
2022-11-21T13:28:35.138Z,16.20
2022-11-21T13:31:07.272Z,19.73
2022-11-21T13:34:00.549Z,19.03
2022-11-21T13:36:46.391Z,19.27
2022-11-21T13:39:37.364Z,17.67
2022-11-21T13:42:31.170Z,15.63
2022-11-21T13:45:22.587Z,21.23
2022-11-21T13:48:15.509Z,17.13
2022-11-21T13:51:10.821Z,22.37
2022-11-21T13:54:09.431Z,13.27
2022-11-21T13:56:44.626Z,11.97
2022-11-21T13:59:31.856Z,12.43
2022-11-21T14:02:48.190Z,10.43
2022-11-21T14:05:33.879Z,11.50
2022-11-21T14:08:16.227Z,10.70
2022-11-21T14:10:47.046Z,12.13
2022-11-21T14:13:24.746Z,10.93
2022-11-21T14:16:05.834Z,11.60
2022-11-21T14:18:37.422Z,9.77
2022-11-21T14:21:08.422Z,11.80
2022-11-21T14:23:38.009Z,10.60
2022-11-21T14:26:13.254Z,11.00
2022-11-21T14:28:41.745Z,13.37
2022-11-21T14:31:11.909Z,12.53
2022-11-21T14:33:42.701Z,12.60
2022-11-21T14:36:15.787Z,13.93
2022-11-21T14:38:47.570Z,15.60
2022-11-21T14:41:31.528Z,15.13
2022-11-21T14:44:08.644Z,15.03
2022-11-21T14:46:38.608Z,14.23
2022-11-21T14:49:29.977Z,14.07
2022-11-21T14:52:18.435Z,13.53
2022-11-21T14:55:27.887Z,11.77
2022-11-21T14:57:44.098Z,16.20
2022-11-21T15:00:51.501Z,16.37
2022-11-21T15:03:06.528Z,17.60
2022-11-21T15:11:15.061Z,19.03
2022-11-21T15:16:36.325Z,20.13
2022-11-21T15:19:11.178Z,18.77
2022-11-21T15:21:46.439Z,22.20
2022-11-21T15:24:20.260Z,20.70
2022-11-21T15:26:49.080Z,21.63
2022-11-21T15:29:22.191Z,20.97
2022-11-21T15:32:10.514Z,21.43
2022-11-21T15:34:42.732Z,21.00
2022-11-21T15:37:18.870Z,21.87
2022-11-21T15:39:50.433Z,24.23
2022-11-21T15:42:38.350Z,23.10
2022-11-21T15:45:25.575Z,24.10
2022-11-21T15:47:55.714Z,23.53
2022-11-21T15:50:26.476Z,22.03
2022-11-21T15:52:56.409Z,23.00
2022-11-21T15:55:29.424Z,21.43
2022-11-21T15:57:57.811Z,18.27
2022-11-21T16:00:26.320Z,21.67
2022-11-21T16:02:54.799Z,18.37
2022-11-21T16:05:23.226Z,20.27
2022-11-21T16:07:51.734Z,20.23
2022-11-21T16:10:27.409Z,20.80
2022-11-21T16:12:56.763Z,20.43
2022-11-21T16:15:25.258Z,21.47
2022-11-21T16:17:53.759Z,24.53
2022-11-21T16:20:22.741Z,22.20
2022-11-21T16:22:51.061Z,22.27
2022-11-21T16:25:19.508Z,20.47
2022-11-21T16:27:49.368Z,20.40
2022-11-21T16:30:17.999Z,22.83
2022-11-21T16:32:47.135Z,21.67
2022-11-21T16:35:15.617Z,27.93
2022-11-21T16:37:44.058Z,19.97
2022-11-21T16:40:12.906Z,19.47
2022-11-21T16:42:41.718Z,19.57
2022-11-21T16:45:12.106Z,20.27
2022-11-21T16:47:45.765Z,17.27
2022-11-21T16:50:16.900Z,17.33
2022-11-21T16:52:45.338Z,17.70
2022-11-21T16:55:14.843Z,16.80
2022-11-21T16:57:43.446Z,16.17
2022-11-21T17:00:14.142Z,14.77
2022-11-21T17:02:42.594Z,15.17
2022-11-21T17:05:11.710Z,16.30
2022-11-21T17:07:40.648Z,16.17
2022-11-21T17:10:09.626Z,19.03
2022-11-21T17:12:39.258Z,16.80
2022-11-21T17:15:10.359Z,14.53
2022-11-21T17:17:40.290Z,16.47
2022-11-21T17:20:10.972Z,21.03
2022-11-21T17:22:39.359Z,26.40
2022-11-21T17:25:08.539Z,19.00
2022-11-21T17:27:36.919Z,19.30
2022-11-21T17:30:05.823Z,18.73
2022-11-21T17:32:35.449Z,19.63
2022-11-21T17:35:05.637Z,18.70
2022-11-21T17:37:34.047Z,17.87
2022-11-21T17:40:02.571Z,19.60
2022-11-21T17:42:30.989Z,19.53
2022-11-21T17:44:59.547Z,19.30
2022-11-21T17:47:27.862Z,17.07
2022-11-21T17:49:58.970Z,19.17
2022-11-21T17:52:30.998Z,20.80
2022-11-21T17:54:59.490Z,18.63
2022-11-21T17:57:28.133Z,19.43
2022-11-21T17:59:56.478Z,27.47
2022-11-21T18:02:25.449Z,27.30
2022-11-21T18:04:53.852Z,28.10
2022-11-21T18:07:22.351Z,26.20
2022-11-21T18:09:52.522Z,18.40
2022-11-21T18:12:21.696Z,19.43
2022-11-21T18:14:50.124Z,22.50
2022-11-21T18:17:18.474Z,22.23
2022-11-21T18:19:46.876Z,20.17
2022-11-21T18:22:15.214Z,25.53
2022-11-21T18:24:43.643Z,25.07
2022-11-21T18:27:13.461Z,29.00
2022-11-21T18:29:41.866Z,27.23
2022-11-21T18:32:10.284Z,23.40
2022-11-21T18:34:38.625Z,31.17
2022-11-21T18:37:07.017Z,43.77
2022-11-21T18:39:35.530Z,43.53
2022-11-21T18:42:03.886Z,26.23
2022-11-21T18:44:33.737Z,60.17
2022-11-21T18:47:02.154Z,58.90
2022-11-21T18:49:30.759Z,36.40
2022-11-21T18:51:59.788Z,35.33
2022-11-21T18:54:28.372Z,31.47
2022-11-21T18:56:57.461Z,55.10
2022-11-21T18:59:25.931Z,54.43
2022-11-21T19:01:55.815Z,78.93
2022-11-21T19:04:31.483Z,68.87
2022-11-21T19:07:10.288Z,67.03
2022-11-21T19:09:47.816Z,62.03
2022-11-21T19:12:31.911Z,41.43
2022-11-21T19:15:10.707Z,41.00
2022-11-21T19:17:45.793Z,43.63
2022-11-21T19:20:14.468Z,35.40
2022-11-21T19:22:42.921Z,36.60
2022-11-21T19:25:25.159Z,30.13
2022-11-21T19:27:55.745Z,31.93
2022-11-21T19:30:24.227Z,38.70
2022-11-21T19:32:54.497Z,35.67
2022-11-21T19:35:23.871Z,41.10
2022-11-21T19:37:52.455Z,37.60
2022-11-21T19:40:20.993Z,40.13
2022-11-21T19:42:49.402Z,53.47
2022-11-21T19:45:17.966Z,55.23
2022-11-21T19:47:48.040Z,39.00
2022-11-21T19:50:18.149Z,37.77
2022-11-21T19:52:46.592Z,41.50
2022-11-21T19:55:15.202Z,37.67
2022-11-21T19:57:44.451Z,34.10
2022-11-21T20:00:14.539Z,33.27
2022-11-21T20:02:43.812Z,37.53
2022-11-21T20:05:12.240Z,44.63
2022-11-21T20:07:42.155Z,37.67
2022-11-21T20:10:11.216Z,38.67
2022-11-21T20:12:39.881Z,38.17
2022-11-21T20:15:15.206Z,37.80
2022-11-21T20:17:43.798Z,39.23
2022-11-21T20:20:12.787Z,45.03
2022-11-21T20:22:42.595Z,48.27
2022-11-21T20:25:11.040Z,57.27
2022-11-21T20:27:39.491Z,63.17
2022-11-21T20:30:09.800Z,81.43
2022-11-21T20:32:40.754Z,96.30
2022-11-21T20:35:10.306Z,117.70
2022-11-21T20:37:38.741Z,140.53
2022-11-21T20:40:10.403Z,120.47
2022-11-21T20:42:39.288Z,75.57
2022-11-21T20:46:06.367Z,38.73
2022-11-21T20:47:58.482Z,41.07
2022-11-21T20:51:05.725Z,37.43
2022-11-21T20:56:07.101Z,65.30
2022-11-21T20:58:36.719Z,58.30
2022-11-21T21:01:05.952Z,57.07
2022-11-21T21:03:35.837Z,83.43
2022-11-21T21:06:07.264Z,53.57
2022-11-21T21:08:36.749Z,46.40
2022-11-21T21:11:20.740Z,53.00
2022-11-21T21:13:56.421Z,47.07
2022-11-21T21:16:26.764Z,41.43
2022-11-21T21:18:56.932Z,51.33
2022-11-21T21:21:27.363Z,52.57
2022-11-21T21:23:58.319Z,52.87
2022-11-21T21:26:34.613Z,52.60
2022-11-21T21:29:07.776Z,48.83
2022-11-21T21:31:36.342Z,52.83
2022-11-21T21:34:04.884Z,44.20
2022-11-21T21:36:33.406Z,45.40
2022-11-21T21:39:02.380Z,44.87
2022-11-21T21:41:33.260Z,44.47
2022-11-21T21:44:02.176Z,44.80
2022-11-21T21:46:30.801Z,42.50
2022-11-21T21:48:59.800Z,38.90
2022-11-21T21:51:29.395Z,43.03
2022-11-21T21:53:59.574Z,40.67
2022-11-21T21:56:29.625Z,48.83
2022-11-21T21:58:59.947Z,52.27
2022-11-21T22:01:30.598Z,83.27
2022-11-21T22:04:00.780Z,143.27
2022-11-21T22:06:30.053Z,165.37
2022-11-21T22:09:01.015Z,80.80
2022-11-21T22:11:31.898Z,260.33
2022-11-21T22:14:03.456Z,106.83
2022-11-21T22:16:32.537Z,92.43
2022-11-21T22:19:01.335Z,49.27
2022-11-21T22:21:32.751Z,119.70
2022-11-21T22:24:24.104Z,141.83
2022-11-21T22:26:50.853Z,198.37
2022-11-21T22:29:20.848Z,123.30
2022-11-21T22:31:49.247Z,106.27
2022-11-21T22:34:17.718Z,84.17
2022-11-21T22:36:47.017Z,204.80
2022-11-21T22:39:15.878Z,47.63
2022-11-21T22:41:44.470Z,47.20
2022-11-21T22:44:13.623Z,44.10
2022-11-21T22:46:43.557Z,41.77
2022-11-21T22:49:12.017Z,46.57
2022-11-21T22:51:40.582Z,43.50
2022-11-21T22:54:20.105Z,40.40
2022-11-21T22:56:48.628Z,35.70
2022-11-21T22:59:17.112Z,36.03
2022-11-21T23:01:47.070Z,34.80
2022-11-21T23:04:17.887Z,38.57
2022-11-21T23:06:46.580Z,34.33
2022-11-21T23:09:15.264Z,39.10
2022-11-21T23:11:43.694Z,40.23
2022-11-21T23:14:12.146Z,37.83
2022-11-21T23:16:40.750Z,39.30
2022-11-21T23:19:10.635Z,31.97
2022-11-21T23:21:39.005Z,35.87
2022-11-21T23:24:08.164Z,35.73
2022-11-21T23:26:37.631Z,38.43
2022-11-21T23:29:08.925Z,40.60
2022-11-21T23:31:37.889Z,38.07
2022-11-21T23:34:06.380Z,34.63
2022-11-21T23:36:36.167Z,33.20
2022-11-21T23:39:05.085Z,35.23
2022-11-21T23:41:33.646Z,38.80
2022-11-21T23:44:02.161Z,35.20
2022-11-21T23:46:31.299Z,35.67
2022-11-21T23:48:59.893Z,31.30
2022-11-21T23:51:28.482Z,33.80
2022-11-21T23:53:58.301Z,35.57
2022-11-21T23:56:26.728Z,33.80
2022-11-21T23:58:55.205Z,33.50
